createdAt,value
2023-02-26T00:00:39.167Z,17.89
2023-02-26T00:01:39.179Z,17.89
2023-02-26T00:02:39.152Z,17.91
2023-02-26T00:03:39.142Z,17.91
2023-02-26T00:04:39.140Z,17.92
2023-02-26T00:05:38.136Z,17.94
2023-02-26T00:06:39.120Z,17.94
2023-02-26T00:07:38.125Z,17.95
2023-02-26T00:08:39.137Z,17.97
2023-02-26T00:09:38.098Z,17.97
2023-02-26T00:10:39.133Z,17.98
2023-02-26T00:11:38.107Z,17.99
2023-02-26T00:12:39.088Z,18.00
2023-02-26T00:13:39.093Z,18.00
2023-02-26T00:14:38.069Z,18.01
2023-02-26T00:15:38.069Z,18.02
2023-02-26T00:16:39.226Z,18.03
2023-02-26T00:17:39.056Z,18.04
2023-02-26T00:18:39.049Z,18.05
2023-02-26T00:19:39.058Z,18.05
2023-02-26T00:20:38.044Z,18.06
2023-02-26T00:21:39.028Z,18.07
2023-02-26T00:22:39.039Z,18.08
2023-02-26T00:23:39.028Z,18.09
2023-02-26T00:24:39.048Z,18.11
2023-02-26T00:25:39.011Z,18.12
2023-02-26T00:26:39.011Z,18.13
2023-02-26T00:27:39.000Z,18.16
2023-02-26T00:28:38.983Z,18.16
2023-02-26T00:29:38.999Z,18.17
2023-02-26T00:30:39.003Z,18.19
2023-02-26T00:31:38.983Z,18.20
2023-02-26T00:32:39.009Z,18.22
2023-02-26T00:33:38.953Z,18.24
2023-02-26T00:34:38.980Z,18.25
2023-02-26T00:35:38.951Z,18.26
2023-02-26T00:36:38.941Z,18.28
2023-02-26T00:37:38.941Z,18.30
2023-02-26T00:38:38.969Z,18.31
2023-02-26T00:39:39.068Z,18.33
2023-02-26T00:40:39.110Z,18.34
2023-02-26T00:41:39.212Z,18.35
2023-02-26T00:42:39.220Z,18.37
2023-02-26T00:43:39.307Z,18.37
2023-02-26T00:44:39.373Z,18.39
2023-02-26T00:45:39.407Z,18.40
2023-02-26T00:46:39.444Z,18.40
2023-02-26T00:47:39.544Z,18.41
2023-02-26T00:48:39.569Z,18.43
2023-02-26T00:49:39.633Z,18.45
2023-02-26T00:50:38.662Z,18.45
2023-02-26T00:51:39.724Z,18.47
2023-02-26T00:52:39.768Z,18.47
2023-02-26T00:53:39.822Z,18.48
2023-02-26T00:54:38.845Z,18.49
2023-02-26T00:55:39.906Z,18.51
2023-02-26T00:56:39.995Z,18.52
2023-02-26T00:57:40.006Z,18.52
2023-02-26T00:58:39.056Z,18.53
2023-02-26T00:59:40.103Z,18.53
2023-02-26T01:00:39.148Z,18.54
2023-02-26T01:01:40.200Z,18.55
2023-02-26T01:02:40.229Z,18.55
2023-02-26T01:03:40.348Z,18.55
2023-02-26T01:04:39.318Z,18.56
2023-02-26T01:05:40.382Z,18.56
2023-02-26T01:06:40.407Z,18.57
2023-02-26T01:07:40.459Z,18.58
2023-02-26T01:08:39.496Z,18.58
2023-02-26T01:09:40.551Z,18.59
2023-02-26T01:10:40.601Z,18.59
2023-02-26T01:11:39.654Z,18.60
2023-02-26T01:12:40.746Z,18.60
2023-02-26T01:13:39.755Z,18.59
2023-02-26T01:14:39.804Z,18.61
2023-02-26T01:15:40.901Z,18.62
2023-02-26T01:16:39.917Z,18.62
2023-02-26T01:17:40.960Z,18.62
2023-02-26T01:18:41.017Z,18.63
2023-02-26T01:19:40.057Z,18.64
2023-02-26T01:20:41.122Z,18.63
2023-02-26T01:21:40.157Z,18.64
2023-02-26T01:22:40.234Z,18.65
2023-02-26T01:23:41.252Z,18.64
2023-02-26T01:24:41.311Z,18.65
2023-02-26T01:25:41.370Z,18.65
2023-02-26T01:26:41.391Z,18.65
2023-02-26T01:27:41.492Z,18.66
2023-02-26T01:28:41.504Z,18.65
2023-02-26T01:29:41.522Z,18.66
2023-02-26T01:30:40.588Z,18.66
2023-02-26T01:31:41.776Z,18.67
2023-02-26T01:32:41.764Z,18.67
2023-02-26T01:33:41.676Z,18.68
2023-02-26T01:34:40.729Z,18.68
2023-02-26T01:35:41.751Z,18.68
2023-02-26T01:36:41.800Z,18.69
2023-02-26T01:37:41.825Z,18.68
2023-02-26T01:38:41.888Z,18.69
2023-02-26T01:39:41.925Z,18.70
2023-02-26T01:40:41.961Z,18.70
2023-02-26T01:41:42.016Z,18.70
2023-02-26T01:42:41.046Z,18.70
2023-02-26T01:43:42.090Z,18.71
2023-02-26T01:44:41.163Z,18.71
2023-02-26T01:45:41.150Z,18.72
2023-02-26T01:46:42.241Z,18.73
2023-02-26T01:47:42.225Z,18.73
2023-02-26T01:48:42.281Z,18.74
2023-02-26T01:49:42.303Z,18.74
2023-02-26T01:50:42.332Z,18.74
2023-02-26T01:51:42.373Z,18.75
2023-02-26T01:52:42.416Z,18.75
2023-02-26T01:53:42.445Z,18.75
2023-02-26T01:54:42.462Z,18.76
2023-02-26T01:55:42.499Z,18.76
2023-02-26T01:56:42.535Z,18.77
2023-02-26T01:57:42.582Z,18.77
2023-02-26T01:58:42.596Z,18.77
2023-02-26T01:59:41.679Z,18.77
2023-02-26T02:00:42.694Z,18.77
2023-02-26T02:01:41.706Z,18.77
2023-02-26T02:02:42.806Z,18.78
2023-02-26T02:03:42.982Z,18.78
2023-02-26T02:04:41.814Z,18.77
2023-02-26T02:05:42.889Z,18.78
2023-02-26T02:06:42.885Z,18.78
2023-02-26T02:07:42.914Z,18.79
2023-02-26T02:08:42.945Z,18.79
2023-02-26T02:09:42.994Z,18.78
2023-02-26T02:10:42.012Z,18.79
2023-02-26T02:11:43.061Z,18.79
2023-02-26T02:12:43.070Z,18.79
2023-02-26T02:13:43.085Z,18.79
2023-02-26T02:14:43.113Z,18.79
2023-02-26T02:15:43.144Z,18.80
2023-02-26T02:16:43.218Z,18.80
2023-02-26T02:17:43.221Z,18.79
2023-02-26T02:18:43.262Z,18.80
2023-02-26T02:19:42.302Z,18.79
2023-02-26T02:20:43.327Z,18.79
2023-02-26T02:21:42.373Z,18.79
2023-02-26T02:22:43.386Z,18.80
2023-02-26T02:23:43.433Z,18.79
2023-02-26T02:24:42.544Z,18.79
2023-02-26T02:25:43.501Z,18.79
2023-02-26T02:26:42.541Z,18.79
2023-02-26T02:27:43.558Z,18.80
2023-02-26T02:28:43.595Z,18.79
2023-02-26T02:29:42.624Z,18.80
2023-02-26T02:30:42.668Z,18.80
2023-02-26T02:31:43.906Z,18.81
2023-02-26T02:32:43.823Z,18.81
2023-02-26T02:33:42.799Z,18.80
2023-02-26T02:34:43.837Z,18.81
2023-02-26T02:35:43.864Z,18.81
2023-02-26T02:36:43.919Z,18.81
2023-02-26T02:37:42.954Z,18.80
2023-02-26T02:38:43.993Z,18.80
2023-02-26T02:39:44.017Z,18.80
2023-02-26T02:40:44.074Z,18.80
2023-02-26T02:41:44.105Z,18.80
2023-02-26T02:42:44.154Z,18.80
2023-02-26T02:43:44.164Z,18.81
2023-02-26T02:44:44.214Z,18.81
2023-02-26T02:45:44.361Z,18.82
2023-02-26T02:46:43.338Z,18.82
2023-02-26T02:47:44.322Z,18.82
2023-02-26T02:48:43.372Z,18.83
2023-02-26T02:49:43.368Z,18.82
2023-02-26T02:50:43.480Z,18.82
2023-02-26T02:51:44.449Z,18.82
2023-02-26T02:52:44.491Z,18.83
2023-02-26T02:53:44.521Z,18.83
2023-02-26T02:54:44.550Z,18.83
2023-02-26T02:55:44.596Z,18.82
2023-02-26T02:56:44.607Z,18.83
2023-02-26T02:57:44.650Z,18.83
2023-02-26T02:58:43.674Z,18.83
2023-02-26T02:59:44.694Z,18.84
2023-02-26T03:00:44.747Z,18.83
2023-02-26T03:01:44.776Z,18.83
2023-02-26T03:02:44.890Z,18.83
2023-02-26T03:03:43.829Z,18.84
2023-02-26T03:04:43.885Z,18.84
2023-02-26T03:05:43.894Z,18.84
2023-02-26T03:06:43.945Z,18.84
2023-02-26T03:07:44.946Z,18.84
2023-02-26T03:08:44.988Z,18.84
2023-02-26T03:09:45.038Z,18.84
2023-02-26T03:10:45.072Z,18.84
2023-02-26T03:11:45.111Z,18.85
2023-02-26T03:12:44.122Z,18.85
2023-02-26T03:13:45.146Z,18.85
2023-02-26T03:14:45.194Z,18.85
2023-02-26T03:15:45.230Z,18.85
2023-02-26T03:16:45.355Z,18.86
2023-02-26T03:17:44.294Z,18.86
2023-02-26T03:18:45.330Z,18.86
2023-02-26T03:19:45.357Z,18.85
2023-02-26T03:20:45.480Z,18.86
2023-02-26T03:21:45.448Z,18.87
2023-02-26T03:22:45.460Z,18.87
2023-02-26T03:23:44.510Z,18.87
2023-02-26T03:24:45.528Z,18.87
2023-02-26T03:25:44.555Z,18.87
2023-02-26T03:26:45.616Z,18.88
2023-02-26T03:27:44.608Z,18.88
2023-02-26T03:28:44.652Z,18.88
2023-02-26T03:29:45.688Z,18.88
2023-02-26T03:30:45.753Z,18.89
2023-02-26T03:31:44.810Z,18.89
2023-02-26T03:32:45.783Z,18.89
2023-02-26T03:33:45.813Z,18.89
2023-02-26T03:34:45.847Z,18.90
2023-02-26T03:35:45.881Z,18.90
2023-02-26T03:36:45.942Z,18.90
2023-02-26T03:37:45.949Z,18.91
2023-02-26T03:38:45.987Z,18.91
2023-02-26T03:39:46.035Z,18.91
2023-02-26T03:40:46.063Z,18.90
2023-02-26T03:41:46.110Z,18.91
2023-02-26T03:42:46.127Z,18.91
2023-02-26T03:43:46.176Z,18.92
2023-02-26T03:44:45.204Z,18.92
2023-02-26T03:45:46.273Z,18.92
2023-02-26T03:46:46.265Z,18.92
2023-02-26T03:47:46.301Z,18.94
2023-02-26T03:48:46.403Z,18.93
2023-02-26T03:49:46.374Z,18.94
2023-02-26T03:50:46.404Z,18.93
2023-02-26T03:51:46.469Z,18.94
2023-02-26T03:52:46.488Z,18.94
2023-02-26T03:53:45.489Z,18.95
2023-02-26T03:54:46.510Z,18.95
2023-02-26T03:55:46.543Z,18.95
2023-02-26T03:56:46.594Z,18.95
2023-02-26T03:57:46.614Z,18.95
2023-02-26T03:58:45.633Z,18.96
2023-02-26T03:59:46.639Z,18.97
2023-02-26T04:00:45.669Z,18.97
2023-02-26T04:01:46.704Z,18.97
2023-02-26T04:02:46.737Z,18.97
2023-02-26T04:03:46.814Z,18.97
2023-02-26T04:04:46.788Z,18.98
2023-02-26T04:05:46.815Z,18.99
2023-02-26T04:06:45.832Z,19.00
2023-02-26T04:07:46.894Z,18.99
2023-02-26T04:08:46.930Z,18.99
2023-02-26T04:09:46.930Z,18.99
2023-02-26T04:10:46.952Z,19.00
2023-02-26T04:11:46.972Z,19.01
2023-02-26T04:12:45.992Z,19.02
2023-02-26T04:13:47.010Z,19.01
2023-02-26T04:14:47.052Z,19.03
2023-02-26T04:15:47.066Z,19.03
2023-02-26T04:16:46.144Z,19.02
2023-02-26T04:17:47.090Z,19.02
2023-02-26T04:18:47.110Z,19.03
2023-02-26T04:19:47.149Z,19.03
2023-02-26T04:20:46.160Z,19.04
2023-02-26T04:21:47.193Z,19.03
2023-02-26T04:22:47.218Z,19.04
2023-02-26T04:23:47.227Z,19.03
2023-02-26T04:24:47.261Z,19.03
2023-02-26T04:25:46.269Z,19.03
2023-02-26T04:26:46.304Z,19.03
2023-02-26T04:27:47.302Z,19.03
2023-02-26T04:28:47.337Z,19.04
2023-02-26T04:29:47.352Z,19.04
2023-02-26T04:30:47.458Z,19.05
2023-02-26T04:31:47.582Z,19.05
2023-02-26T04:32:47.424Z,19.04
2023-02-26T04:33:47.431Z,19.04
2023-02-26T04:34:47.445Z,19.04
2023-02-26T04:35:47.479Z,19.05
2023-02-26T04:36:46.492Z,19.04
2023-02-26T04:37:47.525Z,19.04
2023-02-26T04:38:47.545Z,19.04
2023-02-26T04:39:47.560Z,19.04
2023-02-26T04:40:46.615Z,19.05
2023-02-26T04:41:46.591Z,19.05
2023-02-26T04:42:47.714Z,19.04
2023-02-26T04:43:47.640Z,19.04
2023-02-26T04:44:47.653Z,19.05
2023-02-26T04:45:47.691Z,19.04
2023-02-26T04:46:47.691Z,19.05
2023-02-26T04:47:47.737Z,19.05
2023-02-26T04:48:47.728Z,19.05
2023-02-26T04:49:47.755Z,19.05
2023-02-26T04:50:46.802Z,19.05
2023-02-26T04:51:46.846Z,19.05
2023-02-26T04:52:47.823Z,19.04
2023-02-26T04:53:47.848Z,19.05
2023-02-26T04:54:47.876Z,19.06
2023-02-26T04:55:49.624Z,19.06
2023-02-26T04:56:47.894Z,19.05
2023-02-26T04:57:47.883Z,19.06
2023-02-26T04:58:47.867Z,19.05
2023-02-26T04:59:47.875Z,19.05
2023-02-26T05:00:46.853Z,19.06
2023-02-26T05:01:47.972Z,19.05
2023-02-26T05:02:46.854Z,19.05
2023-02-26T05:03:47.831Z,19.05
2023-02-26T05:04:47.898Z,19.06
2023-02-26T05:05:47.869Z,19.06
2023-02-26T05:06:47.847Z,19.06
2023-02-26T05:07:46.814Z,19.06
2023-02-26T05:08:47.813Z,19.06
2023-02-26T05:09:47.799Z,19.06
2023-02-26T05:10:46.786Z,19.06
2023-02-26T05:11:46.784Z,19.05
2023-02-26T05:12:47.804Z,19.05
2023-02-26T05:13:47.803Z,19.05
2023-02-26T05:14:47.754Z,19.05
2023-02-26T05:15:47.808Z,19.05
2023-02-26T05:16:47.713Z,19.04
2023-02-26T05:17:47.746Z,19.05
2023-02-26T05:18:47.716Z,19.05
2023-02-26T05:19:47.728Z,19.05
2023-02-26T05:20:47.700Z,19.04
2023-02-26T05:21:47.704Z,19.04
2023-02-26T05:22:47.710Z,19.04
2023-02-26T05:23:47.714Z,19.03
2023-02-26T05:24:47.712Z,19.03
2023-02-26T05:25:46.696Z,19.03
2023-02-26T05:26:47.680Z,19.02
2023-02-26T05:27:47.665Z,19.02
2023-02-26T05:28:47.674Z,19.02
2023-02-26T05:29:47.656Z,19.02
2023-02-26T05:30:46.667Z,19.01
2023-02-26T05:31:47.790Z,19.01
2023-02-26T05:32:46.638Z,19.01
2023-02-26T05:33:47.620Z,19.02
2023-02-26T05:34:47.600Z,19.02
2023-02-26T05:35:47.606Z,19.02
2023-02-26T05:36:46.594Z,19.01
2023-02-26T05:37:47.601Z,19.00
2023-02-26T05:38:47.580Z,19.00
2023-02-26T05:39:47.576Z,18.99
2023-02-26T05:40:47.552Z,19.00
2023-02-26T05:41:47.544Z,18.99
2023-02-26T05:42:46.550Z,18.99
2023-02-26T05:43:47.532Z,18.98
2023-02-26T05:44:47.569Z,18.98
2023-02-26T05:45:46.529Z,18.97
2023-02-26T05:46:47.578Z,18.97
2023-02-26T05:47:47.572Z,18.97
2023-02-26T05:48:47.594Z,18.97
2023-02-26T05:49:47.639Z,18.97
2023-02-26T05:50:46.664Z,18.96
2023-02-26T05:51:46.702Z,18.96
2023-02-26T05:52:47.739Z,18.96
2023-02-26T05:53:47.778Z,18.97
2023-02-26T05:54:47.803Z,18.96
2023-02-26T05:55:47.831Z,18.96
2023-02-26T05:56:47.860Z,18.96
2023-02-26T05:57:47.875Z,18.96
2023-02-26T05:58:47.903Z,18.96
2023-02-26T05:59:47.937Z,18.96
2023-02-26T06:00:47.968Z,18.95
2023-02-26T06:01:48.013Z,18.95
2023-02-26T06:02:47.997Z,18.95
2023-02-26T06:03:48.005Z,18.95
2023-02-26T06:04:47.025Z,18.94
2023-02-26T06:05:48.040Z,18.94
2023-02-26T06:06:48.087Z,18.93
2023-02-26T06:07:48.096Z,18.94
2023-02-26T06:08:48.127Z,18.93
2023-02-26T06:09:48.149Z,18.93
2023-02-26T06:10:48.152Z,18.94
2023-02-26T06:11:48.188Z,18.94
2023-02-26T06:12:48.200Z,18.93
2023-02-26T06:13:48.239Z,18.93
2023-02-26T06:14:48.250Z,18.93
2023-02-26T06:15:48.262Z,18.94
2023-02-26T06:16:48.409Z,18.94
2023-02-26T06:17:48.307Z,18.94
2023-02-26T06:18:48.329Z,18.94
2023-02-26T06:19:48.341Z,18.94
2023-02-26T06:20:48.375Z,18.94
2023-02-26T06:21:48.391Z,18.93
2023-02-26T06:22:48.400Z,18.95
2023-02-26T06:23:48.431Z,18.95
2023-02-26T06:24:48.442Z,18.95
2023-02-26T06:25:48.469Z,18.95
2023-02-26T06:26:48.494Z,18.95
2023-02-26T06:27:48.584Z,18.95
2023-02-26T06:28:48.542Z,18.96
2023-02-26T06:29:48.606Z,18.97
2023-02-26T06:30:48.732Z,18.97
2023-02-26T06:31:48.819Z,18.98
2023-02-26T06:32:48.750Z,18.98
2023-02-26T06:33:48.659Z,18.98
2023-02-26T06:34:48.682Z,18.99
2023-02-26T06:35:48.690Z,18.98
2023-02-26T06:36:48.719Z,18.97
2023-02-26T06:37:48.735Z,18.98
2023-02-26T06:38:48.772Z,18.98
2023-02-26T06:39:47.795Z,18.98
2023-02-26T06:40:48.810Z,18.98
2023-02-26T06:41:48.854Z,18.98
2023-02-26T06:42:48.892Z,18.98
2023-02-26T06:43:48.893Z,18.98
2023-02-26T06:44:48.908Z,18.98
2023-02-26T06:45:49.014Z,18.99
2023-02-26T06:46:48.953Z,18.98
2023-02-26T06:47:49.012Z,18.98
2023-02-26T06:48:48.073Z,18.98
2023-02-26T06:49:49.025Z,18.99
2023-02-26T06:50:49.083Z,18.99
2023-02-26T06:51:49.078Z,19.00
2023-02-26T06:52:49.118Z,19.00
2023-02-26T06:53:49.178Z,19.00
2023-02-26T06:54:49.148Z,19.01
2023-02-26T06:55:49.233Z,19.02
2023-02-26T06:56:49.196Z,19.02
2023-02-26T06:57:49.215Z,19.02
2023-02-26T06:58:49.264Z,19.02
2023-02-26T06:59:49.294Z,19.03
2023-02-26T07:00:49.353Z,19.03
2023-02-26T07:01:48.317Z,19.03
2023-02-26T07:02:49.339Z,19.04
2023-02-26T07:03:49.407Z,19.03
2023-02-26T07:04:48.411Z,19.03
2023-02-26T07:05:48.386Z,19.04
2023-02-26T07:06:49.412Z,19.04
2023-02-26T07:07:49.442Z,19.04
2023-02-26T07:08:48.498Z,19.06
2023-02-26T07:09:49.494Z,19.06
2023-02-26T07:10:49.497Z,19.06
2023-02-26T07:11:49.511Z,19.07
2023-02-26T07:12:49.570Z,19.07
2023-02-26T07:13:49.554Z,19.08
2023-02-26T07:14:49.569Z,19.08
2023-02-26T07:15:49.594Z,19.09
2023-02-26T07:16:49.644Z,19.08
2023-02-26T07:17:48.623Z,19.09
2023-02-26T07:18:48.644Z,19.09
2023-02-26T07:19:49.679Z,19.10
2023-02-26T07:20:49.708Z,19.09
2023-02-26T07:21:49.701Z,19.09
2023-02-26T07:22:48.711Z,19.10
2023-02-26T07:23:49.750Z,19.10
2023-02-26T07:24:49.766Z,19.10
2023-02-26T07:25:49.782Z,19.11
2023-02-26T07:26:48.792Z,19.11
2023-02-26T07:27:49.820Z,19.11
2023-02-26T07:28:48.829Z,19.12
2023-02-26T07:29:49.859Z,19.11
2023-02-26T07:30:49.983Z,19.11
2023-02-26T07:31:49.066Z,19.11
2023-02-26T07:32:48.882Z,19.12
2023-02-26T07:33:49.903Z,19.12
2023-02-26T07:34:49.919Z,19.12
2023-02-26T07:35:48.952Z,19.12
2023-02-26T07:36:49.980Z,19.13
2023-02-26T07:37:49.980Z,19.14
2023-02-26T07:38:49.982Z,19.14
2023-02-26T07:39:49.023Z,19.15
2023-02-26T07:40:50.026Z,19.14
2023-02-26T07:41:50.031Z,19.14
2023-02-26T07:42:50.055Z,19.15
2023-02-26T07:43:50.050Z,19.15
2023-02-26T07:44:50.087Z,19.15
2023-02-26T07:45:50.225Z,19.15
2023-02-26T07:46:49.103Z,19.15
2023-02-26T07:47:50.108Z,19.15
2023-02-26T07:48:50.130Z,19.16
2023-02-26T07:49:50.151Z,19.16
2023-02-26T07:50:50.162Z,19.16
2023-02-26T07:51:49.169Z,19.17
2023-02-26T07:52:50.207Z,19.17
2023-02-26T07:53:49.231Z,19.18
2023-02-26T07:54:50.243Z,19.18
2023-02-26T07:55:50.212Z,19.17
2023-02-26T07:56:50.226Z,19.18
2023-02-26T07:57:50.274Z,19.17
2023-02-26T07:58:50.265Z,19.19
2023-02-26T07:59:49.274Z,19.19
2023-02-26T08:00:50.284Z,19.18
2023-02-26T08:01:49.370Z,19.20
2023-02-26T08:02:50.293Z,19.20
2023-02-26T08:03:50.354Z,19.21
2023-02-26T08:04:50.322Z,19.22
2023-02-26T08:05:50.357Z,19.22
2023-02-26T08:06:50.398Z,19.21
2023-02-26T08:07:50.361Z,19.22
2023-02-26T08:08:50.388Z,19.22
2023-02-26T08:09:50.366Z,19.21
2023-02-26T08:10:50.389Z,19.21
2023-02-26T08:11:50.398Z,19.21
2023-02-26T08:12:50.416Z,19.20
2023-02-26T08:13:49.427Z,19.22
2023-02-26T08:14:50.432Z,19.21
2023-02-26T08:15:49.478Z,19.22
2023-02-26T08:16:50.435Z,19.23
2023-02-26T08:17:50.482Z,19.22
2023-02-26T08:18:50.512Z,19.23
2023-02-26T08:19:50.480Z,19.25
2023-02-26T08:20:50.488Z,19.25
2023-02-26T08:21:50.897Z,19.24
2023-02-26T08:22:50.490Z,19.25
2023-02-26T08:23:50.496Z,19.24
2023-02-26T08:24:49.534Z,19.26
2023-02-26T08:25:49.512Z,19.27
2023-02-26T08:26:50.528Z,19.28
2023-02-26T08:27:50.531Z,19.28
2023-02-26T08:28:50.558Z,19.28
2023-02-26T08:29:50.548Z,19.27
2023-02-26T08:30:50.657Z,19.27
2023-02-26T08:31:49.650Z,19.28
2023-02-26T08:32:50.559Z,19.27
2023-02-26T08:33:49.561Z,19.29
2023-02-26T08:34:49.576Z,19.28
2023-02-26T08:35:50.581Z,19.28
2023-02-26T08:36:50.583Z,19.27
2023-02-26T08:37:50.609Z,19.28
2023-02-26T08:38:49.607Z,19.29
2023-02-26T08:39:50.586Z,19.28
2023-02-26T08:40:50.629Z,19.30
2023-02-26T08:41:50.601Z,19.32
2023-02-26T08:42:50.615Z,19.33
2023-02-26T08:43:50.610Z,19.33
2023-02-26T08:44:50.619Z,19.34
2023-02-26T08:45:49.678Z,19.35
2023-02-26T08:46:50.683Z,19.37
2023-02-26T08:47:56.550Z,19.37
2023-02-26T08:48:50.630Z,19.37
2023-02-26T08:49:49.625Z,19.40
2023-02-26T08:50:49.615Z,19.42
2023-02-26T08:51:50.619Z,19.42
2023-02-26T08:52:50.620Z,19.42
2023-02-26T08:53:50.602Z,19.43
2023-02-26T08:54:50.597Z,19.43
2023-02-26T08:55:50.614Z,19.42
2023-02-26T08:56:50.626Z,19.44
2023-02-26T08:57:49.589Z,19.44
2023-02-26T08:58:50.581Z,19.44
2023-02-26T08:59:50.577Z,19.44
2023-02-26T09:00:50.565Z,19.43
2023-02-26T09:01:50.576Z,19.45
2023-02-26T09:02:50.646Z,19.47
2023-02-26T09:03:50.542Z,19.48
2023-02-26T09:04:50.531Z,19.49
2023-02-26T09:05:50.529Z,19.50
2023-02-26T09:06:50.515Z,19.51
2023-02-26T09:07:50.560Z,19.52
2023-02-26T09:08:49.513Z,19.53
2023-02-26T09:09:50.490Z,19.52
2023-02-26T09:10:49.496Z,19.53
2023-02-26T09:11:49.468Z,19.53
2023-02-26T09:12:50.489Z,19.53
2023-02-26T09:13:50.469Z,19.53
2023-02-26T09:14:50.450Z,19.54
2023-02-26T09:15:50.460Z,19.55
2023-02-26T09:16:51.321Z,19.54
2023-02-26T09:17:49.427Z,19.55
2023-02-26T09:18:50.420Z,19.56
2023-02-26T09:19:50.415Z,19.56
2023-02-26T09:20:50.435Z,19.57
2023-02-26T09:21:50.399Z,19.57
2023-02-26T09:22:50.428Z,19.57
2023-02-26T09:23:50.387Z,19.58
2023-02-26T09:24:50.434Z,19.58
2023-02-26T09:25:50.387Z,19.59
2023-02-26T09:26:50.396Z,19.59
2023-02-26T09:27:50.372Z,19.58
2023-02-26T09:28:49.384Z,19.60
2023-02-26T09:29:50.374Z,19.60
2023-02-26T09:30:50.374Z,19.61
2023-02-26T09:31:50.440Z,19.61
2023-02-26T09:32:50.389Z,19.61
2023-02-26T09:33:50.322Z,19.62
2023-02-26T09:34:50.317Z,19.62
2023-02-26T09:35:50.321Z,19.62
2023-02-26T09:36:50.310Z,19.63
2023-02-26T09:37:49.289Z,19.64
2023-02-26T09:38:50.298Z,19.62
2023-02-26T09:39:50.284Z,19.63
2023-02-26T09:40:50.263Z,19.64
2023-02-26T09:41:50.296Z,19.64
2023-02-26T09:42:49.298Z,19.64
2023-02-26T09:43:50.279Z,19.65
2023-02-26T09:44:50.301Z,19.64
2023-02-26T09:45:50.341Z,19.64
2023-02-26T09:46:50.320Z,19.64
2023-02-26T09:47:50.334Z,19.64
2023-02-26T09:48:50.341Z,19.64
2023-02-26T09:49:49.363Z,19.64
2023-02-26T09:50:49.376Z,19.64
2023-02-26T09:51:50.400Z,19.64
2023-02-26T09:52:49.428Z,19.63
2023-02-26T09:53:50.431Z,19.63
2023-02-26T09:54:50.427Z,19.64
2023-02-26T09:55:50.451Z,19.62
2023-02-26T09:56:50.521Z,19.63
2023-02-26T09:57:50.503Z,19.62
2023-02-26T09:58:50.575Z,19.62
2023-02-26T09:59:50.527Z,19.61
2023-02-26T10:00:50.600Z,19.61
2023-02-26T10:01:50.589Z,19.61
2023-02-26T10:02:49.566Z,19.60
2023-02-26T10:03:50.584Z,19.61
2023-02-26T10:04:49.553Z,19.60
2023-02-26T10:05:50.547Z,19.60
2023-02-26T10:06:50.551Z,19.60
2023-02-26T10:07:49.540Z,19.61
2023-02-26T10:08:49.539Z,19.60
2023-02-26T10:09:49.533Z,19.61
2023-02-26T10:10:50.534Z,19.61
2023-02-26T10:11:50.540Z,19.61
2023-02-26T10:12:50.549Z,19.60
2023-02-26T10:13:57.704Z,19.60
2023-02-26T10:14:50.548Z,19.60
2023-02-26T10:15:50.549Z,19.60
2023-02-26T10:16:50.653Z,19.60
2023-02-26T10:17:50.546Z,19.59
2023-02-26T10:18:50.522Z,19.60
2023-02-26T10:19:50.536Z,19.59
2023-02-26T10:20:51.395Z,19.59
2023-02-26T10:21:50.307Z,19.59
2023-02-26T10:22:50.511Z,19.59
2023-02-26T10:23:50.492Z,19.59
2023-02-26T10:24:50.485Z,19.58
2023-02-26T10:25:50.480Z,19.59
2023-02-26T10:26:50.477Z,19.58
2023-02-26T10:27:50.467Z,19.58
2023-02-26T10:28:50.444Z,19.58
2023-02-26T10:29:50.455Z,19.57
2023-02-26T10:30:49.550Z,19.58
2023-02-26T10:31:50.591Z,19.58
2023-02-26T10:32:50.624Z,19.58
2023-02-26T10:33:50.477Z,19.59
2023-02-26T10:34:50.502Z,19.58
2023-02-26T10:35:49.521Z,19.59
2023-02-26T10:36:49.528Z,19.58
2023-02-26T10:37:50.539Z,19.58
2023-02-26T10:38:50.543Z,19.57
2023-02-26T10:39:50.575Z,19.57
2023-02-26T10:40:50.577Z,19.57
2023-02-26T10:41:50.614Z,19.57
2023-02-26T10:42:50.586Z,19.56
2023-02-26T10:43:50.625Z,19.56
2023-02-26T10:44:50.599Z,19.56
2023-02-26T10:45:50.634Z,19.56
2023-02-26T10:46:50.669Z,19.56
2023-02-26T10:47:50.658Z,19.56
2023-02-26T10:48:49.672Z,19.57
2023-02-26T10:49:50.636Z,19.56
2023-02-26T10:50:50.645Z,19.57
2023-02-26T10:51:50.643Z,19.56
2023-02-26T10:52:50.669Z,19.55
2023-02-26T10:53:50.694Z,19.55
2023-02-26T10:54:50.661Z,19.55
2023-02-26T10:55:49.646Z,19.55
2023-02-26T10:56:50.669Z,19.55
2023-02-26T10:57:50.654Z,19.55
2023-02-26T10:58:50.671Z,19.55
2023-02-26T10:59:50.694Z,19.55
2023-02-26T11:00:50.668Z,19.55
2023-02-26T11:01:49.673Z,19.56
2023-02-26T11:02:50.693Z,19.55
2023-02-26T11:03:50.715Z,19.54
2023-02-26T11:04:59.204Z,19.55
2023-02-26T11:05:50.701Z,19.56
2023-02-26T11:06:50.685Z,19.56
2023-02-26T11:07:50.702Z,19.55
2023-02-26T11:08:49.685Z,19.55
2023-02-26T11:09:50.674Z,19.56
2023-02-26T11:10:49.678Z,19.56
2023-02-26T11:11:50.658Z,19.56
2023-02-26T11:12:50.667Z,19.57
2023-02-26T11:13:50.653Z,19.58
2023-02-26T11:14:50.635Z,19.57
2023-02-26T11:15:49.674Z,19.57
2023-02-26T11:16:50.626Z,19.57
2023-02-26T11:17:49.643Z,19.57
2023-02-26T11:18:50.616Z,19.57
2023-02-26T11:19:50.605Z,19.56
2023-02-26T11:20:50.619Z,19.56
2023-02-26T11:21:49.584Z,19.57
2023-02-26T11:22:49.589Z,19.56
2023-02-26T11:23:50.587Z,19.55
2023-02-26T11:24:50.596Z,19.55
2023-02-26T11:25:50.570Z,19.56
2023-02-26T11:26:50.553Z,19.55
2023-02-26T11:27:50.563Z,19.55
2023-02-26T11:28:50.544Z,19.55
2023-02-26T11:29:50.540Z,19.55
2023-02-26T11:30:49.701Z,19.56
2023-02-26T11:31:50.676Z,19.56
2023-02-26T11:32:49.533Z,19.55
2023-02-26T11:33:49.512Z,19.55
2023-02-26T11:34:49.506Z,19.56
2023-02-26T11:35:50.504Z,19.56
2023-02-26T11:36:49.504Z,19.56
2023-02-26T11:37:49.530Z,19.56
2023-02-26T11:38:49.476Z,19.56
2023-02-26T11:39:50.471Z,19.56
2023-02-26T11:40:50.470Z,19.57
2023-02-26T11:41:50.443Z,19.57
2023-02-26T11:42:50.491Z,19.56
2023-02-26T11:43:50.437Z,19.56
2023-02-26T11:44:50.426Z,19.55
2023-02-26T11:45:50.485Z,19.56
2023-02-26T11:46:49.413Z,19.57
2023-02-26T11:47:50.424Z,19.56
2023-02-26T11:48:50.411Z,19.55
2023-02-26T11:49:50.399Z,19.56
2023-02-26T11:50:50.375Z,19.56
2023-02-26T11:51:50.379Z,19.57
2023-02-26T11:52:50.400Z,19.56
2023-02-26T11:53:50.370Z,19.58
2023-02-26T11:54:50.387Z,19.58
2023-02-26T11:55:50.376Z,19.58
2023-02-26T11:56:50.352Z,19.58
2023-02-26T11:57:50.385Z,19.57
2023-02-26T11:58:50.366Z,19.58
2023-02-26T11:59:50.419Z,19.58
2023-02-26T12:00:49.356Z,19.59
2023-02-26T12:01:50.368Z,19.58
2023-02-26T12:02:50.481Z,19.58
2023-02-26T12:03:50.424Z,19.59
2023-02-26T12:04:50.370Z,19.59
2023-02-26T12:05:50.461Z,19.58
2023-02-26T12:06:50.370Z,19.59
2023-02-26T12:07:50.435Z,19.59
2023-02-26T12:08:50.388Z,19.58
2023-02-26T12:09:50.330Z,19.59
2023-02-26T12:10:50.332Z,19.60
2023-02-26T12:11:50.320Z,19.59
2023-02-26T12:12:50.337Z,19.59
2023-02-26T12:13:50.325Z,19.58
2023-02-26T12:14:49.364Z,19.59
2023-02-26T12:15:50.347Z,19.58
2023-02-26T12:16:50.337Z,19.58
2023-02-26T12:17:50.375Z,19.59
2023-02-26T12:18:50.365Z,19.59
2023-02-26T12:19:50.372Z,19.59
2023-02-26T12:20:50.364Z,19.58
2023-02-26T12:21:50.373Z,19.59
2023-02-26T12:22:50.393Z,19.59
2023-02-26T12:23:50.360Z,19.59
2023-02-26T12:24:50.382Z,19.59
2023-02-26T12:25:49.366Z,19.60
2023-02-26T12:26:50.356Z,19.60
2023-02-26T12:27:50.369Z,19.60
2023-02-26T12:28:50.329Z,19.60
2023-02-26T12:29:50.326Z,19.60
2023-02-26T12:30:50.362Z,19.60
2023-02-26T12:31:49.425Z,19.60
2023-02-26T12:32:50.374Z,19.59
2023-02-26T12:33:50.325Z,19.59
2023-02-26T12:34:50.311Z,19.59
2023-02-26T12:35:50.292Z,19.59
2023-02-26T12:36:50.330Z,19.60
2023-02-26T12:37:49.338Z,19.60
2023-02-26T12:38:50.337Z,19.60
2023-02-26T12:39:50.354Z,19.59
2023-02-26T12:40:50.355Z,19.59
2023-02-26T12:41:50.333Z,19.59
2023-02-26T12:42:50.335Z,19.59
2023-02-26T12:43:50.340Z,19.59
2023-02-26T12:44:50.317Z,19.58
2023-02-26T12:45:50.333Z,19.59
2023-02-26T12:46:50.425Z,19.59
2023-02-26T12:47:50.317Z,19.59
2023-02-26T12:48:51.450Z,19.60
2023-02-26T12:49:50.319Z,19.59
2023-02-26T12:50:49.307Z,19.59
2023-02-26T12:51:50.337Z,19.59
2023-02-26T12:52:50.292Z,19.60